Time;durP1;ratioP1;P1;durP2;ratioP2;P2;SDS_P1;SDS_P2;PMS_P1;PMS_P2;Temp;Humidity;BMP_temperature;BMP_pressure;BME280_temperature;BME280_humidity;BME280_pressure;Samples;Min_cycle;Max_cycle;Signal;HPM_P1;HPM_P2
2022/10/20 00:00:24;;;;;;;7.68;5.00;;;7.70;99.90;;;;;;5062075;28;20032;-50
2022/10/20 00:02:49;;;;;;;9.00;4.97;;;7.60;99.90;;;;;;5061299;28;20090;-52
2022/10/20 00:05:15;;;;;;;6.90;4.70;;;7.60;99.90;;;;;;5058008;28;20033;-53
2022/10/20 00:07:41;;;;;;;8.18;4.38;;;7.60;99.90;;;;;;5042966;28;20093;-50
2022/10/20 00:10:06;;;;;;;6.50;4.80;;;7.60;99.90;;;;;;5062230;28;20036;-51
2022/10/20 00:12:32;;;;;;;9.50;4.32;;;7.60;99.90;;;;;;5056351;28;20418;-53
2022/10/20 00:14:58;;;;;;;8.43;4.90;;;7.60;99.90;;;;;;5061324;28;20041;-50
2022/10/20 00:17:23;;;;;;;10.57;5.03;;;7.50;99.90;;;;;;5061115;28;20127;-50
2022/10/20 00:19:49;;;;;;;7.07;4.55;;;7.50;99.90;;;;;;5056773;28;20079;-52
2022/10/20 00:22:15;;;;;;;11.52;4.80;;;7.40;99.90;;;;;;5059402;28;20064;-49
2022/10/20 00:24:41;;;;;;;7.03;4.88;;;7.40;99.90;;;;;;5065218;28;20040;-53
2022/10/20 00:27:06;;;;;;;12.48;5.03;;;7.40;99.90;;;;;;5059583;28;20504;-55
2022/10/20 00:29:32;;;;;;;7.38;4.97;;;7.40;99.90;;;;;;5062199;28;20486;-52
2022/10/20 00:31:58;;;;;;;6.25;3.78;;;7.40;99.90;;;;;;5063653;28;20037;-55
2022/10/20 00:34:23;;;;;;;7.38;4.38;;;7.40;99.90;;;;;;5061222;28;20474;-53
2022/10/20 00:36:49;;;;;;;6.65;4.05;;;7.40;99.90;;;;;;5065678;28;20051;-54
2022/10/20 00:39:15;;;;;;;9.95;5.88;;;7.30;99.90;;;;;;5058952;28;20064;-53
2022/10/20 00:41:41;;;;;;;6.90;4.40;;;7.30;99.90;;;;;;5062632;28;20482;-53
2022/10/20 00:44:44;;;;;;;8.50;4.63;;;7.20;99.90;;;;;;5066061;28;20114;-51
2022/10/20 00:47:21;;;;;;;10.10;5.18;;;7.20;99.90;;;;;;5036713;28;20428;-53
2022/10/20 00:49:48;;;;;;;9.25;5.05;;;7.20;99.90;;;;;;5060978;28;20131;-54
2022/10/20 00:52:17;;;;;;;6.82;5.13;;;7.20;99.90;;;;;;5062487;28;20048;-52
2022/10/20 00:54:43;;;;;;;8.85;4.97;;;7.20;99.90;;;;;;5061067;28;20045;-53
2022/10/20 00:57:09;;;;;;;12.18;5.40;;;7.20;99.90;;;;;;5060706;28;20047;-52
2022/10/20 00:59:36;;;;;;;9.95;4.88;;;7.10;99.90;;;;;;5059817;28;20385;-53
2022/10/20 01:02:05;;;;;;;7.28;5.43;;;7.10;99.90;;;;;;5063411;28;20044;-52
2022/10/20 01:04:32;;;;;;;8.95;4.72;;;7.10;99.90;;;;;;5063565;28;20121;-53
2022/10/20 01:06:58;;;;;;;6.15;4.28;;;7.10;99.90;;;;;;5057199;28;20051;-53
2022/10/20 01:09:23;;;;;;;8.55;5.10;;;7.10;99.90;;;;;;5063655;28;20048;-53
2022/10/20 01:12:04;;;;;;;7.32;5.25;;;7.00;99.90;;;;;;5064738;28;20055;-49
2022/10/20 01:14:54;;;;;;;6.95;5.00;;;7.10;99.90;;;;;;5059425;28;20116;-52
2022/10/20 01:17:45;;;;;;;12.68;5.63;;;7.00;99.90;;;;;;5061611;28;20032;-49
2022/10/20 01:20:20;;;;;;;23.67;5.35;;;7.00;99.90;;;;;;5065326;28;20041;-53
2022/10/20 01:23:03;;;;;;;7.43;4.60;;;7.00;99.90;;;;;;5063399;28;20048;-49
2022/10/20 01:25:54;;;;;;;7.65;4.68;;;7.00;99.90;;;;;;5060898;28;20518;-52
2022/10/20 01:28:41;;;;;;;8.38;5.15;;;7.00;99.90;;;;;;5064445;28;20131;-48
2022/10/20 01:31:30;;;;;;;9.38;4.93;;;7.00;99.90;;;;;;5067191;28;20079;-54
2022/10/20 01:34:08;;;;;;;9.90;5.30;;;7.10;99.90;;;;;;5069325;28;20498;-52
2022/10/20 01:36:40;;;;;;;6.03;4.50;;;7.10;99.90;;;;;;5067857;28;20040;-51
2022/10/20 01:39:17;;;;;;;5.93;4.45;;;7.10;99.90;;;;;;5062450;28;20057;-52
2022/10/20 01:41:53;;;;;;;5.75;4.80;;;7.10;99.90;;;;;;5067320;28;20041;-54
2022/10/20 01:44:22;;;;;;;6.22;4.93;;;7.10;99.90;;;;;;5067017;28;20068;-52
2022/10/20 01:46:48;;;;;;;10.73;4.80;;;7.00;99.90;;;;;;5064546;28;20474;-53
2022/10/20 01:49:14;;;;;;;7.00;5.03;;;7.00;99.90;;;;;;5065121;28;20094;-55
2022/10/20 01:51:40;;;;;;;8.82;5.28;;;7.00;99.90;;;;;;5066751;28;20049;-53
2022/10/20 01:54:06;;;;;;;6.45;4.70;;;7.00;99.90;;;;;;5069577;28;20450;-50
2022/10/20 01:56:41;;;;;;;7.95;5.30;;;7.00;99.90;;;;;;5059292;28;20397;-55
2022/10/20 01:59:09;;;;;;;8.95;5.38;;;7.00;99.90;;;;;;5066448;28;20060;-50
2022/10/20 02:01:49;;;;;;;9.23;4.85;;;7.00;99.90;;;;;;5063642;28;20052;-53
2022/10/20 02:04:16;;;;;;;7.93;4.95;;;7.00;99.90;;;;;;5068920;28;20385;-49
2022/10/20 02:06:51;;;;;;;8.88;5.28;;;7.00;99.90;;;;;;5063998;28;20041;-52
2022/10/20 02:09:26;;;;;;;7.55;4.80;;;7.00;99.90;;;;;;5059595;28;20053;-54
2022/10/20 02:11:57;;;;;;;7.70;5.55;;;7.00;99.90;;;;;;5065557;28;20036;-49
2022/10/20 02:14:23;;;;;;;7.35;5.38;;;7.00;99.90;;;;;;5068046;28;20090;-49
2022/10/20 02:16:55;;;;;;;8.57;5.35;;;6.90;99.90;;;;;;5067575;28;20033;-49
2022/10/20 02:19:24;;;;;;;11.65;5.45;;;6.90;99.90;;;;;;5069715;28;20059;-50
2022/10/20 02:21:52;;;;;;;8.57;4.75;;;6.90;99.90;;;;;;5064444;28;20087;-51
2022/10/20 02:24:21;;;;;;;8.45;5.68;;;6.90;99.90;;;;;;5066630;28;20040;-48
2022/10/20 02:26:48;;;;;;;7.75;5.10;;;6.90;99.90;;;;;;5064449;28;20430;-51
2022/10/20 02:29:18;;;;;;;9.73;4.15;;;6.90;99.90;;;;;;5068153;28;20033;-50
2022/10/20 02:31:45;;;;;;;11.43;5.22;;;6.90;99.90;;;;;;5064229;28;20033;-50
2022/10/20 02:34:12;;;;;;;9.68;5.65;;;6.90;99.90;;;;;;5069614;28;20422;-52
2022/10/20 02:36:40;;;;;;;7.93;5.82;;;6.90;99.90;;;;;;5065181;28;20044;-51
2022/10/20 02:39:07;;;;;;;7.78;5.63;;;6.90;99.90;;;;;;5063496;28;20499;-54
2022/10/20 02:41:33;;;;;;;9.20;5.68;;;6.90;99.90;;;;;;5066481;28;20045;-53
2022/10/20 02:43:58;;;;;;;8.68;5.60;;;6.90;99.90;;;;;;5065664;28;20082;-56
2022/10/20 02:46:24;;;;;;;8.85;5.38;;;6.80;99.90;;;;;;5065788;28;20205;-55
2022/10/20 02:48:50;;;;;;;8.60;6.18;;;6.80;99.90;;;;;;5064216;28;20051;-53
2022/10/20 02:51:16;;;;;;;12.32;6.35;;;6.80;99.90;;;;;;5064738;28;20068;-53
2022/10/20 02:53:42;;;;;;;8.57;6.25;;;6.80;99.90;;;;;;5058792;28;20041;-53
2022/10/20 02:56:08;;;;;;;8.35;6.57;;;6.80;99.90;;;;;;5063162;28;20479;-52
2022/10/20 02:58:34;;;;;;;7.57;6.82;;;6.90;99.90;;;;;;5063775;28;20043;-54
2022/10/20 03:00:59;;;;;;;7.10;5.82;;;6.90;99.90;;;;;;5063273;28;20041;-52
2022/10/20 03:03:25;;;;;;;12.13;7.63;;;6.90;99.90;;;;;;5064378;28;20157;-49
2022/10/20 03:05:51;;;;;;;11.30;7.18;;;6.90;99.90;;;;;;5061800;28;20037;-53
2022/10/20 03:08:16;;;;;;;8.75;7.10;;;6.90;99.90;;;;;;5063486;28;20083;-52
2022/10/20 03:10:42;;;;;;;7.60;6.28;;;6.90;99.90;;;;;;5058636;28;20383;-54
2022/10/20 03:13:09;;;;;;;10.25;6.93;;;6.90;99.90;;;;;;5062996;28;20048;-54
2022/10/20 03:15:35;;;;;;;9.70;7.13;;;6.90;99.90;;;;;;5067188;28;20037;-53
2022/10/20 03:18:01;;;;;;;10.35;7.60;;;6.90;99.90;;;;;;5066956;28;20043;-54
2022/10/20 03:20:26;;;;;;;8.60;7.72;;;6.90;99.90;;;;;;5063759;28;20032;-51
2022/10/20 03:22:52;;;;;;;11.63;8.35;;;6.90;99.90;;;;;;5063652;28;20041;-52
2022/10/20 03:25:17;;;;;;;11.00;7.55;;;6.80;99.90;;;;;;5063929;28;20389;-53
2022/10/20 03:27:43;;;;;;;10.02;8.20;;;6.80;99.90;;;;;;5060225;28;20056;-52
2022/10/20 03:30:09;;;;;;;10.20;7.28;;;6.80;99.90;;;;;;5070962;28;20317;-52
2022/10/20 03:32:35;;;;;;;12.18;8.48;;;6.90;99.90;;;;;;5063438;28;20052;-51
2022/10/20 03:35:01;;;;;;;8.93;8.02;;;6.80;99.90;;;;;;5067647;28;20040;-52
2022/10/20 03:37:26;;;;;;;9.32;8.32;;;6.80;99.90;;;;;;5046482;28;20037;-53
2022/10/20 03:39:52;;;;;;;10.95;8.27;;;6.80;99.90;;;;;;5066551;28;20033;-54
2022/10/20 03:42:17;;;;;;;9.65;8.23;;;6.80;99.90;;;;;;5062580;28;20052;-54
2022/10/20 03:44:44;;;;;;;10.27;9.05;;;6.80;99.90;;;;;;5067130;28;20055;-54
2022/10/20 03:47:10;;;;;;;10.38;7.78;;;6.80;99.90;;;;;;5060616;28;20047;-53
2022/10/20 03:49:37;;;;;;;12.13;8.48;;;6.80;99.90;;;;;;5064848;28;20055;-52
2022/10/20 03:52:03;;;;;;;11.77;9.30;;;6.80;99.90;;;;;;5064369;28;20082;-54
2022/10/20 03:54:29;;;;;;;11.05;9.93;;;6.80;99.90;;;;;;5067316;28;20028;-55
2022/10/20 03:56:54;;;;;;;14.95;10.32;;;6.70;99.90;;;;;;5058652;28;20040;-51
2022/10/20 03:59:20;;;;;;;11.20;9.75;;;6.70;99.90;;;;;;5066164;28;20045;-53
2022/10/20 04:01:46;;;;;;;9.57;8.10;;;6.70;99.90;;;;;;5076318;28;20124;-53
2022/10/20 04:04:12;;;;;;;15.50;10.90;;;6.70;99.90;;;;;;5067453;28;20047;-51
2022/10/20 04:06:37;;;;;;;11.30;10.05;;;6.70;99.90;;;;;;5061437;28;21891;-52
2022/10/20 04:09:03;;;;;;;14.73;9.80;;;6.80;99.90;;;;;;5068422;28;20440;-52
2022/10/20 04:11:30;;;;;;;13.18;10.75;;;6.70;99.90;;;;;;5063429;28;20453;-50
2022/10/20 04:13:56;;;;;;;13.38;10.55;;;6.70;99.90;;;;;;5064651;28;20486;-48
2022/10/20 04:16:22;;;;;;;13.70;10.45;;;6.70;99.90;;;;;;5057040;28;20039;-53
2022/10/20 04:18:48;;;;;;;12.25;11.05;;;6.70;99.90;;;;;;5067043;28;20048;-53
2022/10/20 04:21:14;;;;;;;11.98;10.77;;;6.70;99.90;;;;;;5051342;28;20036;-53
2022/10/20 04:23:39;;;;;;;13.60;10.45;;;6.70;99.90;;;;;;5064115;28;20478;-54
2022/10/20 04:26:13;;;;;;;12.77;11.52;;;6.70;99.90;;;;;;5066423;28;20116;-55
2022/10/20 04:28:39;;;;;;;13.40;10.90;;;6.80;99.90;;;;;;5066696;28;20375;-54
2022/10/20 04:31:05;;;;;;;13.35;11.18;;;6.80;99.90;;;;;;5064757;28;20045;-52
2022/10/20 04:33:31;;;;;;;12.48;11.18;;;6.80;99.90;;;;;;5059929;28;20040;-53
2022/10/20 04:36:02;;;;;;;14.55;12.15;;;6.80;99.90;;;;;;5058340;28;20041;-53
2022/10/20 04:38:29;;;;;;;12.27;10.88;;;6.80;99.90;;;;;;5062400;28;20605;-52
2022/10/20 04:40:56;;;;;;;15.93;11.88;;;6.70;99.90;;;;;;5062566;28;20562;-53
2022/10/20 04:43:22;;;;;;;14.07;11.00;;;6.80;99.90;;;;;;5062448;28;20036;-55
2022/10/20 04:45:47;;;;;;;13.85;11.48;;;6.70;99.90;;;;;;5063305;28;20501;-53
2022/10/20 04:48:13;;;;;;;15.07;12.00;;;6.70;99.90;;;;;;5066032;28;20750;-55
2022/10/20 04:50:39;;;;;;;13.80;12.20;;;6.80;99.90;;;;;;5042183;28;20110;-53
2022/10/20 04:53:04;;;;;;;14.52;11.43;;;6.70;99.90;;;;;;5057318;28;20393;-52
2022/10/20 04:55:30;;;;;;;13.35;9.43;;;6.80;99.90;;;;;;5061393;28;20072;-53
2022/10/20 04:57:55;;;;;;;14.85;13.32;;;6.70;99.90;;;;;;5058714;28;20032;-51
2022/10/20 05:00:21;;;;;;;11.82;10.55;;;6.70;99.90;;;;;;5059939;28;20072;-53
2022/10/20 05:02:46;;;;;;;13.38;12.02;;;6.70;99.90;;;;;;5054737;28;20351;-51
2022/10/20 05:05:12;;;;;;;17.35;12.70;;;6.70;99.90;;;;;;5062291;28;20342;-53
2022/10/20 05:07:38;;;;;;;15.05;12.48;;;6.60;99.90;;;;;;5059449;28;20131;-53
2022/10/20 05:10:04;;;;;;;14.90;12.90;;;6.60;99.90;;;;;;5059343;28;20437;-53
2022/10/20 05:12:29;;;;;;;12.93;11.38;;;6.60;99.90;;;;;;5059820;28;20036;-53
2022/10/20 05:14:55;;;;;;;20.52;14.02;;;6.60;99.90;;;;;;5057282;28;20489;-54
2022/10/20 05:17:21;;;;;;;14.73;13.15;;;6.60;99.90;;;;;;5056791;28;20033;-51
2022/10/20 05:19:46;;;;;;;16.02;11.55;;;6.60;99.90;;;;;;5058513;28;20032;-51
2022/10/20 05:22:12;;;;;;;15.10;13.50;;;6.60;99.90;;;;;;5057998;28;20041;-54
2022/10/20 05:24:38;;;;;;;20.35;13.38;;;6.60;99.90;;;;;;5060552;28;20493;-50
2022/10/20 05:27:03;;;;;;;31.45;14.07;;;6.60;99.90;;;;;;5057874;28;20041;-54
2022/10/20 05:29:29;;;;;;;14.20;12.88;;;6.60;99.90;;;;;;5060273;28;20044;-54
2022/10/20 05:31:54;;;;;;;19.40;12.85;;;6.60;99.90;;;;;;5058976;28;20394;-52
2022/10/20 05:34:20;;;;;;;19.00;13.70;;;6.50;99.90;;;;;;5060137;28;20033;-55
2022/10/20 05:36:45;;;;;;;15.68;13.60;;;6.50;99.90;;;;;;5056263;28;20037;-54
2022/10/20 05:39:11;;;;;;;14.35;12.85;;;6.60;99.90;;;;;;5057603;28;20391;-54
2022/10/20 05:41:38;;;;;;;14.30;12.88;;;6.50;99.90;;;;;;5061355;28;20253;-51
2022/10/20 05:44:07;;;;;;;14.55;11.68;;;6.60;99.90;;;;;;5060662;28;20032;-52
2022/10/20 05:46:37;;;;;;;11.18;9.02;;;6.60;99.90;;;;;;5058578;28;20486;-54
2022/10/20 05:49:02;;;;;;;14.43;11.20;;;6.70;99.90;;;;;;5058982;28;20044;-53
2022/10/20 05:51:30;;;;;;;19.85;13.63;;;6.70;99.90;;;;;;5059165;28;20689;-52
2022/10/20 05:53:57;;;;;;;14.95;13.45;;;6.60;99.90;;;;;;5059127;28;20845;-54
2022/10/20 05:56:24;;;;;;;17.17;13.38;;;6.60;99.90;;;;;;5058475;28;20036;-55
2022/10/20 05:58:50;;;;;;;14.63;13.07;;;6.60;99.90;;;;;;5060942;28;20119;-54
2022/10/20 06:01:17;;;;;;;13.50;10.95;;;6.60;99.90;;;;;;5057908;28;20127;-54
2022/10/20 06:03:54;;;;;;;15.52;13.93;;;6.60;99.90;;;;;;5068123;28;20434;-52
2022/10/20 06:06:22;;;;;;;17.88;13.40;;;6.60;99.90;;;;;;5064563;28;20045;-54
2022/10/20 06:08:49;;;;;;;;;;;6.60;99.90;;;;;;5063203;28;20037;-51
2022/10/20 06:11:17;;;;;;;16.38;13.90;;;6.60;99.90;;;;;;5063624;28;19927;-54
2022/10/20 06:13:43;;;;;;;14.90;10.82;;;6.60;99.90;;;;;;5067808;28;20068;-54
2022/10/20 06:16:17;;;;;;;14.85;13.23;;;6.60;99.90;;;;;;5067080;28;20036;-54
2022/10/20 06:18:43;;;;;;;13.82;11.65;;;6.60;99.90;;;;;;5066913;28;20097;-52
2022/10/20 06:21:11;;;;;;;18.13;13.20;;;6.60;99.90;;;;;;5065940;28;20040;-53
2022/10/20 06:23:37;;;;;;;18.02;14.27;;;6.60;99.90;;;;;;5064435;28;20033;-55
2022/10/20 06:26:08;;;;;;;14.15;12.40;;;6.60;99.90;;;;;;5062249;28;20048;-53
2022/10/20 06:28:35;;;;;;;18.17;15.10;;;6.60;99.90;;;;;;5061734;28;20064;-53
2022/10/20 06:31:09;;;;;;;19.85;14.18;;;6.70;99.90;;;;;;5065051;28;20068;-55
2022/10/20 06:33:35;;;;;;;16.02;12.90;;;6.70;99.90;;;;;;5061380;28;20080;-52
2022/10/20 06:36:00;;;;;;;14.93;13.43;;;6.70;99.90;;;;;;5062136;28;20505;-54
2022/10/20 06:38:27;;;;;;;13.05;10.50;;;6.70;99.90;;;;;;5064571;28;20832;-53
2022/10/20 06:40:53;;;;;;;15.25;12.80;;;6.70;99.90;;;;;;5062862;28;20136;-55
2022/10/20 06:43:18;;;;;;;17.73;14.15;;;6.80;99.90;;;;;;5067997;28;20032;-51
2022/10/20 06:45:56;;;;;;;17.15;13.32;;;6.80;99.90;;;;;;5062226;28;20487;-53
2022/10/20 06:48:21;;;;;;;16.75;13.60;;;6.80;99.90;;;;;;5068815;28;20397;-51
2022/10/20 06:50:47;;;;;;;17.17;13.80;;;6.80;99.90;;;;;;5065767;28;20055;-53
2022/10/20 06:53:13;;;;;;;21.33;14.25;;;6.90;99.90;;;;;;5057617;28;20048;-50
2022/10/20 06:55:38;;;;;;;20.77;12.80;;;6.90;99.90;;;;;;5060810;28;20478;-51
2022/10/20 06:58:04;;;;;;;21.75;15.32;;;6.90;99.90;;;;;;5061067;28;20040;-52
2022/10/20 07:00:29;;;;;;;21.00;13.95;;;6.90;99.90;;;;;;5059928;28;20044;-52
2022/10/20 07:02:55;;;;;;;20.65;13.68;;;6.90;99.90;;;;;;5061068;28;20064;-51
2022/10/20 07:05:20;;;;;;;16.70;13.23;;;7.00;99.90;;;;;;5060016;28;20036;-53
2022/10/20 07:07:46;;;;;;;14.77;13.27;;;7.00;99.90;;;;;;5062800;28;21681;-51
2022/10/20 07:10:12;;;;;;;16.52;14.25;;;7.00;99.90;;;;;;5060418;28;20064;-52
2022/10/20 07:12:38;;;;;;;14.68;12.57;;;7.10;99.90;;;;;;5067552;28;20070;-52
2022/10/20 07:15:05;;;;;;;15.80;14.02;;;7.10;99.90;;;;;;5058367;28;20142;-52
2022/10/20 07:17:30;;;;;;;15.98;14.27;;;7.10;99.90;;;;;;5066949;28;20773;-54
2022/10/20 07:19:56;;;;;;;15.43;13.27;;;7.10;99.90;;;;;;5063876;28;20098;-53
2022/10/20 07:22:22;;;;;;;16.30;14.55;;;7.20;99.90;;;;;;5065568;28;20115;-52
2022/10/20 07:24:47;;;;;;;19.27;15.57;;;7.30;99.90;;;;;;5067584;28;20041;-52
2022/10/20 07:27:13;;;;;;;15.85;14.25;;;7.30;99.90;;;;;;5066243;28;20054;-53
2022/10/20 07:29:39;;;;;;;18.80;14.65;;;7.30;99.90;;;;;;5063576;28;21655;-54
2022/10/20 07:32:04;;;;;;;16.38;13.95;;;7.40;99.90;;;;;;5063825;28;20041;-54
2022/10/20 07:34:30;;;;;;;16.30;14.15;;;7.40;99.90;;;;;;5069668;28;20037;-54
2022/10/20 07:36:56;;;;;;;14.88;13.32;;;7.40;99.90;;;;;;5062669;28;20044;-54
2022/10/20 07:39:22;;;;;;;16.15;13.48;;;7.50;99.90;;;;;;5069382;28;20086;-52
2022/10/20 07:41:48;;;;;;;16.83;13.43;;;7.50;99.90;;;;;;5065957;28;20043;-54
2022/10/20 07:44:14;;;;;;;16.40;12.55;;;7.60;99.90;;;;;;5066312;28;20040;-53
2022/10/20 07:46:39;;;;;;;16.92;12.55;;;7.60;99.90;;;;;;5062477;28;20119;-53
2022/10/20 07:49:05;;;;;;;15.68;13.25;;;7.70;99.90;;;;;;5059743;28;20589;-50
2022/10/20 07:51:31;;;;;;;13.38;11.80;;;7.80;99.90;;;;;;5064373;28;20106;-53
2022/10/20 07:54:06;;;;;;;13.05;11.55;;;7.80;99.90;;;;;;5063627;28;20094;-55
2022/10/20 07:56:38;;;;;;;14.73;13.20;;;7.90;99.90;;;;;;5065297;28;20037;-52
2022/10/20 07:59:04;;;;;;;16.35;12.43;;;7.90;99.90;;;;;;5064061;28;20036;-54
2022/10/20 08:01:30;;;;;;;13.77;12.38;;;8.00;99.90;;;;;;5062504;28;20056;-52
2022/10/20 08:03:56;;;;;;;15.13;11.60;;;8.00;99.90;;;;;;5060575;28;20067;-54
2022/10/20 08:06:22;;;;;;;13.98;12.55;;;8.10;99.90;;;;;;5059509;28;20082;-50
2022/10/20 08:08:48;;;;;;;13.63;12.23;;;8.10;99.90;;;;;;5060871;28;20091;-52
2022/10/20 08:11:13;;;;;;;12.98;11.68;;;8.20;99.90;;;;;;5063520;28;20044;-49
2022/10/20 08:13:39;;;;;;;13.40;12.05;;;8.30;99.90;;;;;;5056949;28;20079;-52
2022/10/20 08:16:10;;;;;;;13.40;11.05;;;8.40;99.90;;;;;;5054594;28;20120;-53
2022/10/20 08:18:36;;;;;;;13.23;11.07;;;8.50;99.90;;;;;;5058775;28;20059;-53
2022/10/20 08:21:13;;;;;;;13.63;12.25;;;8.50;99.90;;;;;;5058062;28;20482;-53
2022/10/20 08:23:40;;;;;;;12.98;11.63;;;8.70;99.90;;;;;;5059706;28;20493;-53
2022/10/20 08:26:06;;;;;;;13.15;11.10;;;8.70;99.90;;;;;;5068664;28;20033;-53
2022/10/20 08:28:32;;;;;;;13.45;11.68;;;8.80;99.90;;;;;;5068759;28;20067;-54
2022/10/20 08:31:01;;;;;;;12.52;11.32;;;8.90;99.90;;;;;;5068119;28;20032;-51
2022/10/20 08:33:27;;;;;;;12.90;10.68;;;8.90;99.90;;;;;;5065465;28;20041;-54
2022/10/20 08:35:52;;;;;;;11.90;10.70;;;9.10;99.90;;;;;;5068224;28;20505;-52
2022/10/20 08:38:18;;;;;;;12.30;10.98;;;9.20;99.90;;;;;;5067212;28;20041;-55
2022/10/20 08:40:43;;;;;;;11.60;10.48;;;9.30;99.90;;;;;;5063073;28;20036;-52
2022/10/20 08:43:16;;;;;;;11.32;10.23;;;9.40;99.90;;;;;;5065673;28;20128;-52
2022/10/20 08:45:42;;;;;;;11.55;10.45;;;9.40;99.90;;;;;;5067036;28;21398;-56
2022/10/20 08:48:17;;;;;;;10.05;8.52;;;9.50;99.90;;;;;;5067487;28;20465;-55
2022/10/20 08:50:45;;;;;;;11.10;10.00;;;9.60;99.90;;;;;;5063550;28;20089;-54
2022/10/20 08:53:11;;;;;;;;;;;9.60;99.90;;;;;;5070263;28;20076;-52
2022/10/20 08:55:37;;;;;;;11.32;9.43;;;9.70;99.90;;;;;;5075343;28;19989;-53
2022/10/20 08:58:11;;;;;;;10.82;9.38;;;9.70;99.90;;;;;;5082085;28;20062;-53
2022/10/20 09:00:38;;;;;;;9.98;9.07;;;9.80;99.90;;;;;;5094050;28;20066;-52
2022/10/20 09:03:17;;;;;;;10.57;9.48;;;9.80;99.90;;;;;;5093516;28;20168;-51
2022/10/20 09:05:47;;;;;;;11.50;9.55;;;9.90;99.90;;;;;;5075058;28;20055;-55
2022/10/20 09:08:13;;;;;;;10.45;9.43;;;10.00;99.90;;;;;;5084854;28;20033;-55
2022/10/20 09:10:47;;;;;;;10.98;9.88;;;10.10;99.90;;;;;;5085776;28;20086;-55
2022/10/20 09:13:27;;;;;;;12.15;9.45;;;10.20;99.90;;;;;;5093600;28;20039;-53
2022/10/20 09:16:02;;;;;;;11.82;9.27;;;10.20;99.90;;;;;;5085121;28;20399;-54
2022/10/20 09:18:29;;;;;;;12.70;9.00;;;10.30;99.90;;;;;;5093360;28;20047;-50
2022/10/20 09:20:59;;;;;;;10.98;8.93;;;10.40;99.90;;;;;;5089656;28;20393;-56
2022/10/20 09:23:29;;;;;;;10.88;9.25;;;;;;;;;;5061151;28;20033;-50
2022/10/20 09:25:55;;;;;;;10.95;9.85;;;10.60;99.90;;;;;;5086805;28;20144;-52
2022/10/20 09:28:23;;;;;;;10.13;9.05;;;10.70;99.90;;;;;;5092501;28;20425;-53
2022/10/20 09:30:50;;;;;;;9.27;8.30;;;;;;;;;;5076603;28;20119;-53
2022/10/20 09:33:29;;;;;;;10.13;8.90;;;10.70;99.90;;;;;;5091063;28;20058;-54
2022/10/20 09:36:19;;;;;;;11.55;9.43;;;10.90;99.90;;;;;;5065633;28;20055;-54
2022/10/20 09:38:47;;;;;;;8.48;7.53;;;10.90;99.90;;;;;;5075702;28;20048;-54
2022/10/20 09:41:19;;;;;;;9.48;8.55;;;10.90;99.90;;;;;;5081856;28;20045;-53
2022/10/20 09:44:06;;;;;;;9.50;8.48;;;11.10;99.90;;;;;;5060730;28;20410;-53
2022/10/20 09:46:38;;;;;;;11.63;8.90;;;11.20;99.90;;;;;;5076979;28;20075;-55
2022/10/20 09:49:06;;;;;;;9.93;8.43;;;11.20;99.90;;;;;;5067749;28;20033;-53
2022/10/20 09:51:32;;;;;;;10.25;8.55;;;11.30;99.90;;;;;;5067165;28;20080;-54
2022/10/20 09:54:05;;;;;;;9.88;8.77;;;11.40;99.90;;;;;;5064410;28;20120;-54
2022/10/20 09:56:39;;;;;;;12.35;8.35;;;11.40;99.90;;;;;;5068659;28;20059;-54
2022/10/20 09:59:16;;;;;;;9.48;8.13;;;11.50;99.90;;;;;;5066882;28;20052;-55
2022/10/20 10:02:08;;;;;;;8.80;7.57;;;11.60;99.90;;;;;;5067652;28;20044;-53
2022/10/20 10:04:39;;;;;;;9.23;8.27;;;11.60;99.90;;;;;;5065083;28;20091;-55
2022/10/20 10:07:25;;;;;;;9.18;8.38;;;11.80;99.90;;;;;;5064430;28;20040;-54
2022/10/20 10:09:57;;;;;;;10.10;7.95;;;11.90;99.90;;;;;;5066848;28;20051;-55
2022/10/20 10:12:24;;;;;;;7.15;6.47;;;12.00;99.90;;;;;;5067802;28;20149;-53
2022/10/20 10:15:05;;;;;;;11.35;7.70;;;12.10;99.90;;;;;;5065678;28;20430;-54
2022/10/20 10:17:39;;;;;;;9.13;7.35;;;12.10;99.90;;;;;;5071129;28;20045;-56
2022/10/20 10:20:11;;;;;;;9.60;7.90;;;12.30;99.90;;;;;;5068387;28;20482;-55
2022/10/20 10:22:38;;;;;;;9.90;7.72;;;12.30;99.90;;;;;;5066813;28;20055;-55
2022/10/20 10:25:06;;;;;;;10.07;7.17;;;12.40;99.90;;;;;;5071819;28;20397;-56
2022/10/20 10:27:34;;;;;;;11.05;7.53;;;12.70;99.90;;;;;;5081983;28;20071;-52
2022/10/20 10:30:28;;;;;;;8.90;7.35;;;12.90;99.90;;;;;;5070375;28;20041;-55
2022/10/20 10:32:54;;;;;;;8.10;7.30;;;13.00;99.90;;;;;;5064131;28;20049;-54
2022/10/20 10:35:23;;;;;;;7.75;6.95;;;12.90;99.90;;;;;;5064645;28;20045;-54
2022/10/20 10:37:49;;;;;;;9.38;7.28;;;13.00;99.90;;;;;;5068216;28;20044;-55
2022/10/20 10:40:20;;;;;;;9.13;7.47;;;13.20;99.90;;;;;;5066879;28;20032;-55
2022/10/20 10:43:05;;;;;;;9.23;7.25;;;13.10;99.90;;;;;;5068080;28;20121;-55
2022/10/20 10:45:39;;;;;;;7.63;6.72;;;13.00;99.90;;;;;;5067101;28;20106;-54
2022/10/20 10:48:30;;;;;;;11.52;7.00;;;13.00;99.90;;;;;;5042913;28;20047;-56
2022/10/20 10:51:04;;;;;;;7.75;6.95;;;13.00;99.90;;;;;;5064331;28;20090;-54
2022/10/20 10:53:51;;;;;;;9.25;7.10;;;13.10;99.90;;;;;;5066102;28;20041;-54
2022/10/20 10:56:34;;;;;;;9.98;6.88;;;13.10;99.90;;;;;;5065650;28;20076;-56
2022/10/20 10:59:11;;;;;;;8.63;6.57;;;13.30;99.90;;;;;;5062854;28;20047;-57
2022/10/20 11:02:16;;;;;;;11.48;7.55;;;13.30;99.90;;;;;;5069152;28;20406;-54
2022/10/20 11:05:09;;;;;;;9.35;7.43;;;13.30;99.90;;;;;;5063849;28;20053;-54
2022/10/20 11:07:50;;;;;;;10.40;7.18;;;13.30;99.90;;;;;;5048291;28;20048;-54
2022/10/20 11:10:24;;;;;;;8.82;7.55;;;13.40;99.90;;;;;;5060341;28;20525;-54
2022/10/20 11:13:17;;;;;;;7.55;6.82;;;13.40;99.90;;;;;;5077001;28;20040;-53
2022/10/20 11:15:54;;;;;;;10.27;7.43;;;13.50;99.90;;;;;;5065124;28;20402;-56
2022/10/20 11:18:58;;;;;;;8.45;7.10;;;13.50;99.90;;;;;;5072151;28;20055;-55
2022/10/20 11:22:00;;;;;;;9.95;7.43;;;13.50;99.90;;;;;;5078628;28;20167;-54
2022/10/20 11:24:48;;;;;;;8.25;7.47;;;13.50;99.90;;;;;;5082971;28;20079;-56
2022/10/20 11:27:19;;;;;;;9.65;7.32;;;13.50;99.90;;;;;;5072181;28;20045;-55
2022/10/20 11:30:14;;;;;;;8.02;7.32;;;13.40;99.90;;;;;;5050676;28;20048;-54
2022/10/20 11:32:48;;;;;;;9.27;6.68;;;13.40;99.90;;;;;;5053700;28;20090;-54
2022/10/20 11:35:34;;;;;;;8.68;7.22;;;13.50;99.90;;;;;;5062595;28;20056;-56
2022/10/20 11:38:37;;;;;;;8.70;7.80;;;13.40;99.90;;;;;;5086294;28;20044;-55
2022/10/20 11:41:16;;;;;;;11.65;7.18;;;13.40;99.90;;;;;;5078158;28;20152;-56
2022/10/20 11:43:49;;;;;;;9.10;8.10;;;13.40;99.90;;;;;;5051887;28;20537;-55
2022/10/20 11:46:19;;;;;;;8.82;7.43;;;13.30;99.90;;;;;;5060489;28;20186;-55
2022/10/20 11:48:54;;;;;;;8.02;7.35;;;13.30;99.90;;;;;;5082965;28;20055;-55
2022/10/20 11:51:29;;;;;;;7.93;7.07;;;13.20;99.90;;;;;;5082813;28;20056;-55
2022/10/20 11:54:03;;;;;;;8.95;7.53;;;13.20;99.90;;;;;;5067980;28;20044;-55
2022/10/20 11:56:44;;;;;;;12.18;7.88;;;13.20;99.90;;;;;;5058715;28;20053;-56
2022/10/20 11:59:38;;;;;;;8.98;8.02;;;13.10;99.90;;;;;;5071180;28;20047;-55
2022/10/20 12:02:19;;;;;;;10.70;8.20;;;13.10;99.90;;;;;;5042345;28;20112;-57
2022/10/20 12:04:59;;;;;;;9.98;8.02;;;13.10;99.90;;;;;;5063235;28;20048;-56
2022/10/20 12:07:52;;;;;;;11.98;8.73;;;13.10;99.90;;;;;;5064503;28;20055;-55
2022/10/20 12:10:57;;;;;;;12.23;8.02;;;13.10;99.90;;;;;;5070296;28;20074;-55
2022/10/20 12:13:39;;;;;;;11.93;7.95;;;13.10;99.90;;;;;;5051239;28;20064;-56
2022/10/20 12:16:05;;;;;;;8.98;8.10;;;13.10;99.90;;;;;;5067259;28;20088;-57
2022/10/20 12:18:33;;;;;;;9.68;7.88;;;13.10;99.90;;;;;;5064318;28;20076;-55
2022/10/20 12:21:05;;;;;;;9.80;8.30;;;13.10;99.90;;;;;;5064587;28;20067;-55
2022/10/20 12:23:43;;;;;;;12.38;8.68;;;13.00;99.90;;;;;;5069452;28;20102;-57
2022/10/20 12:26:28;;;;;;;11.07;8.77;;;13.00;99.90;;;;;;5068224;28;20098;-57
2022/10/20 12:28:54;;;;;;;10.32;9.25;;;12.90;99.90;;;;;;5065116;28;20066;-57
2022/10/20 12:31:20;;;;;;;10.60;9.50;;;12.90;99.90;;;;;;5063375;28;20389;-56
2022/10/20 12:33:48;;;;;;;11.70;8.50;;;12.90;99.90;;;;;;5064113;28;20132;-55
2022/10/20 12:36:17;;;;;;;11.57;9.05;;;12.90;99.90;;;;;;5062934;28;20126;-56
2022/10/20 12:38:52;;;;;;;11.90;10.23;;;12.80;99.90;;;;;;5061458;28;20058;-55
2022/10/20 12:41:27;;;;;;;12.05;9.95;;;12.80;99.90;;;;;;5065212;28;20048;-55
2022/10/20 12:43:59;;;;;;;10.38;9.00;;;12.80;99.90;;;;;;5071756;28;20048;-56
2022/10/20 12:46:30;;;;;;;10.10;9.15;;;12.70;99.90;;;;;;5048680;28;20044;-54
2022/10/20 12:49:05;;;;;;;13.38;9.68;;;12.70;99.90;;;;;;5058322;28;20040;-56
2022/10/20 12:51:40;;;;;;;13.57;10.30;;;12.70;99.90;;;;;;5060198;28;20056;-55
2022/10/20 12:54:22;;;;;;;12.68;9.75;;;12.70;99.90;;;;;;5069085;28;20044;-56
2022/10/20 12:56:49;;;;;;;13.93;9.93;;;12.70;99.90;;;;;;5063064;28;20052;-57
2022/10/20 12:59:23;;;;;;;11.20;10.10;;;12.60;99.90;;;;;;5063208;28;20079;-55
2022/10/20 13:02:07;;;;;;;12.50;11.10;;;12.70;99.90;;;;;;5091821;28;20452;-56